sensor_id;sensor_type;location;lat;lon;timestamp;temperature;humidity
3268;DHT22;1646;52.450;13.326;2023-09-19T00:03:17;19.80;99.90
3268;DHT22;1646;52.450;13.326;2023-09-19T00:08:16;19.80;99.90
3268;DHT22;1646;52.450;13.326;2023-09-19T00:13:20;19.80;99.90
3268;DHT22;1646;52.450;13.326;2023-09-19T00:18:20;19.70;99.90
3268;DHT22;1646;52.450;13.326;2023-09-19T00:23:20;19.70;99.90
3268;DHT22;1646;52.450;13.326;2023-09-19T00:28:20;19.70;99.90
3268;DHT22;1646;52.450;13.326;2023-09-19T00:33:18;19.60;99.90
3268;DHT22;1646;52.450;13.326;2023-09-19T00:38:17;19.60;99.90
3268;DHT22;1646;52.450;13.326;2023-09-19T00:43:19;19.60;99.90
3268;DHT22;1646;52.450;13.326;2023-09-19T00:48:19;19.60;99.90
3268;DHT22;1646;52.450;13.326;2023-09-19T00:53:21;19.50;99.90
3268;DHT22;1646;52.450;13.326;2023-09-19T00:58:25;19.50;99.90
3268;DHT22;1646;52.450;13.326;2023-09-19T01:03:30;19.50;99.90
3268;DHT22;1646;52.450;13.326;2023-09-19T01:08:29;19.50;99.90
3268;DHT22;1646;52.450;13.326;2023-09-19T01:13:38;19.50;99.90
3268;DHT22;1646;52.450;13.326;2023-09-19T01:18:47;19.40;99.90
3268;DHT22;1646;52.450;13.326;2023-09-19T01:24:10;19.40;99.90
3268;DHT22;1646;52.450;13.326;2023-09-19T01:29:26;19.40;99.90
3268;DHT22;1646;52.450;13.326;2023-09-19T01:34:45;19.30;99.90
3268;DHT22;1646;52.450;13.326;2023-09-19T01:39:47;19.30;99.90
3268;DHT22;1646;52.450;13.326;2023-09-19T01:44:59;19.30;99.90
3268;DHT22;1646;52.450;13.326;2023-09-19T01:50:11;19.40;99.90
3268;DHT22;1646;52.450;13.326;2023-09-19T01:55:12;19.40;99.90
3268;DHT22;1646;52.450;13.326;2023-09-19T02:00:15;19.40;99.90
3268;DHT22;1646;52.450;13.326;2023-09-19T02:05:24;19.30;99.90
3268;DHT22;1646;52.450;13.326;2023-09-19T02:10:22;19.30;99.90
3268;DHT22;1646;52.450;13.326;2023-09-19T02:15:21;19.20;99.90
3268;DHT22;1646;52.450;13.326;2023-09-19T02:20:19;19.10;99.90
3268;DHT22;1646;52.450;13.326;2023-09-19T02:25:20;19.10;99.90
3268;DHT22;1646;52.450;13.326;2023-09-19T02:30:18;19.10;99.90
3268;DHT22;1646;52.450;13.326;2023-09-19T02:35:18;19.00;99.90
3268;DHT22;1646;52.450;13.326;2023-09-19T02:40:17;18.90;99.90
3268;DHT22;1646;52.450;13.326;2023-09-19T02:45:20;18.80;99.90
3268;DHT22;1646;52.450;13.326;2023-09-19T02:50:19;18.80;99.90
3268;DHT22;1646;52.450;13.326;2023-09-19T02:55:19;18.80;99.90
3268;DHT22;1646;52.450;13.326;2023-09-19T03:00:21;18.80;99.90
3268;DHT22;1646;52.450;13.326;2023-09-19T03:05:20;18.70;99.90
3268;DHT22;1646;52.450;13.326;2023-09-19T03:10:21;18.70;99.90
3268;DHT22;1646;52.450;13.326;2023-09-19T03:15:21;18.70;99.90
3268;DHT22;1646;52.450;13.326;2023-09-19T03:20:22;18.70;99.90
3268;DHT22;1646;52.450;13.326;2023-09-19T03:25:20;18.60;99.90
3268;DHT22;1646;52.450;13.326;2023-09-19T03:30:22;18.60;99.90
3268;DHT22;1646;52.450;13.326;2023-09-19T03:35:21;18.60;99.90
3268;DHT22;1646;52.450;13.326;2023-09-19T03:40:20;18.60;99.90
3268;DHT22;1646;52.450;13.326;2023-09-19T03:45:19;18.60;99.90
3268;DHT22;1646;52.450;13.326;2023-09-19T03:50:22;18.60;99.90
3268;DHT22;1646;52.450;13.326;2023-09-19T03:55:21;18.50;99.90
3268;DHT22;1646;52.450;13.326;2023-09-19T04:00:20;18.30;99.90
3268;DHT22;1646;52.450;13.326;2023-09-19T04:05:22;18.10;99.90
3268;DHT22;1646;52.450;13.326;2023-09-19T04:10:20;18.10;99.90
3268;DHT22;1646;52.450;13.326;2023-09-19T04:15:19;18.10;99.90
3268;DHT22;1646;52.450;13.326;2023-09-19T04:20:22;18.10;99.90
3268;DHT22;1646;52.450;13.326;2023-09-19T04:25:21;18.10;99.90
3268;DHT22;1646;52.450;13.326;2023-09-19T04:30:19;18.10;99.90
3268;DHT22;1646;52.450;13.326;2023-09-19T04:35:18;18.10;99.90
3268;DHT22;1646;52.450;13.326;2023-09-19T04:40:18;18.10;99.90
3268;DHT22;1646;52.450;13.326;2023-09-19T04:45:17;18.10;99.90
3268;DHT22;1646;52.450;13.326;2023-09-19T04:50:17;18.10;99.90
3268;DHT22;1646;52.450;13.326;2023-09-19T04:55:17;18.10;99.90
3268;DHT22;1646;52.450;13.326;2023-09-19T05:00:18;18.00;99.90
3268;DHT22;1646;52.450;13.326;2023-09-19T05:05:20;18.00;99.90
3268;DHT22;1646;52.450;13.326;2023-09-19T05:10:20;17.90;99.90
3268;DHT22;1646;52.450;13.326;2023-09-19T05:15:19;17.90;99.90
3268;DHT22;1646;52.450;13.326;2023-09-19T05:20:18;17.90;99.90
3268;DHT22;1646;52.450;13.326;2023-09-19T05:25:23;17.90;99.90
3268;DHT22;1646;52.450;13.326;2023-09-19T05:30:22;17.90;99.90
3268;DHT22;1646;52.450;13.326;2023-09-19T05:35:20;18.00;99.90
3268;DHT22;1646;52.450;13.326;2023-09-19T05:40:19;17.90;99.90
3268;DHT22;1646;52.450;13.326;2023-09-19T05:45:20;17.90;99.90
3268;DHT22;1646;52.450;13.326;2023-09-19T05:50:20;18.00;99.90
3268;DHT22;1646;52.450;13.326;2023-09-19T05:55:18;18.00;99.90
3268;DHT22;1646;52.450;13.326;2023-09-19T06:00:18;18.10;99.90
3268;DHT22;1646;52.450;13.326;2023-09-19T06:05:21;18.20;99.90
3268;DHT22;1646;52.450;13.326;2023-09-19T06:10:19;18.20;99.90
3268;DHT22;1646;52.450;13.326;2023-09-19T06:15:20;18.20;99.90
3268;DHT22;1646;52.450;13.326;2023-09-19T06:20:21;18.20;99.90
3268;DHT22;1646;52.450;13.326;2023-09-19T06:25:20;18.10;99.90
3268;DHT22;1646;52.450;13.326;2023-09-19T06:30:20;18.10;99.90
3268;DHT22;1646;52.450;13.326;2023-09-19T06:35:21;18.20;99.90
3268;DHT22;1646;52.450;13.326;2023-09-19T06:40:20;18.20;99.90
3268;DHT22;1646;52.450;13.326;2023-09-19T06:45:19;18.30;99.90
3268;DHT22;1646;52.450;13.326;2023-09-19T06:50:21;18.40;99.90
3268;DHT22;1646;52.450;13.326;2023-09-19T06:55:21;18.40;99.90
3268;DHT22;1646;52.450;13.326;2023-09-19T07:00:22;18.50;99.90
3268;DHT22;1646;52.450;13.326;2023-09-19T07:05:23;18.60;99.90
3268;DHT22;1646;52.450;13.326;2023-09-19T07:10:21;18.80;99.90
3268;DHT22;1646;52.450;13.326;2023-09-19T07:15:23;19.20;99.90
3268;DHT22;1646;52.450;13.326;2023-09-19T07:20:24;19.20;99.90
3268;DHT22;1646;52.450;13.326;2023-09-19T07:25:24;19.50;99.90
3268;DHT22;1646;52.450;13.326;2023-09-19T07:30:22;19.50;99.90
3268;DHT22;1646;52.450;13.326;2023-09-19T07:35:23;19.30;99.90
3268;DHT22;1646;52.450;13.326;2023-09-19T07:40:23;19.40;99.90
3268;DHT22;1646;52.450;13.326;2023-09-19T07:45:21;19.70;99.90
3268;DHT22;1646;52.450;13.326;2023-09-19T07:50:23;19.60;99.90
3268;DHT22;1646;52.450;13.326;2023-09-19T07:55:23;19.30;99.90
3268;DHT22;1646;52.450;13.326;2023-09-19T08:00:22;19.30;99.90
3268;DHT22;1646;52.450;13.326;2023-09-19T08:05:22;19.40;99.90
3268;DHT22;1646;52.450;13.326;2023-09-19T08:10:20;19.50;99.90
3268;DHT22;1646;52.450;13.326;2023-09-19T08:15:20;19.40;99.90
3268;DHT22;1646;52.450;13.326;2023-09-19T08:20:37;19.50;99.90
3268;DHT22;1646;52.450;13.326;2023-09-19T08:25:36;19.40;99.90
3268;DHT22;1646;52.450;13.326;2023-09-19T08:30:36;19.40;99.90
3268;DHT22;1646;52.450;13.326;2023-09-19T08:35:39;19.20;99.90
3268;DHT22;1646;52.450;13.326;2023-09-19T08:40:38;19.30;99.90
3268;DHT22;1646;52.450;13.326;2023-09-19T08:45:39;20.00;99.90
3268;DHT22;1646;52.450;13.326;2023-09-19T08:50:43;20.20;99.90
3268;DHT22;1646;52.450;13.326;2023-09-19T08:55:43;21.20;99.90
3268;DHT22;1646;52.450;13.326;2023-09-19T09:00:47;21.60;99.90
3268;DHT22;1646;52.450;13.326;2023-09-19T09:05:49;21.50;99.90
3268;DHT22;1646;52.450;13.326;2023-09-19T09:10:48;20.90;99.90
3268;DHT22;1646;52.450;13.326;2023-09-19T09:15:47;21.70;99.90
3268;DHT22;1646;52.450;13.326;2023-09-19T09:20:45;22.90;99.90
3268;DHT22;1646;52.450;13.326;2023-09-19T09:25:54;22.80;99.90
3268;DHT22;1646;52.450;13.326;2023-09-19T09:30:54;23.00;99.90
3268;DHT22;1646;52.450;13.326;2023-09-19T09:35:55;24.00;99.90
3268;DHT22;1646;52.450;13.326;2023-09-19T09:40:56;23.70;99.90
3268;DHT22;1646;52.450;13.326;2023-09-19T09:46:08;23.60;99.90
3268;DHT22;1646;52.450;13.326;2023-09-19T09:51:30;24.70;99.90
3268;DHT22;1646;52.450;13.326;2023-09-19T09:56:31;25.60;99.90
3268;DHT22;1646;52.450;13.326;2023-09-19T10:01:46;26.80;98.40
3268;DHT22;1646;52.450;13.326;2023-09-19T10:06:45;27.20;95.00
3268;DHT22;1646;52.450;13.326;2023-09-19T10:12:02;27.90;92.10
3268;DHT22;1646;52.450;13.326;2023-09-19T10:17:03;28.40;90.00
3268;DHT22;1646;52.450;13.326;2023-09-19T10:22:04;29.20;84.70
3268;DHT22;1646;52.450;13.326;2023-09-19T10:27:07;29.90;76.70
3268;DHT22;1646;52.450;13.326;2023-09-19T10:32:06;30.80;69.40
3268;DHT22;1646;52.450;13.326;2023-09-19T10:37:07;29.90;69.70
3268;DHT22;1646;52.450;13.326;2023-09-19T10:42:09;27.50;69.80
3268;DHT22;1646;52.450;13.326;2023-09-19T10:47:09;27.00;71.70
3268;DHT22;1646;52.450;13.326;2023-09-19T10:52:08;27.10;71.20
3268;DHT22;1646;52.450;13.326;2023-09-19T10:57:11;27.90;69.80
3268;DHT22;1646;52.450;13.326;2023-09-19T11:02:17;27.30;70.00
3268;DHT22;1646;52.450;13.326;2023-09-19T11:07:17;25.00;71.80
3268;DHT22;1646;52.450;13.326;2023-09-19T11:17:57;22.90;77.30
3268;DHT22;1646;52.450;13.326;2023-09-19T11:23:27;22.30;79.40
3268;DHT22;1646;52.450;13.326;2023-09-19T11:28:31;23.10;81.10
3268;DHT22;1646;52.450;13.326;2023-09-19T11:33:32;23.20;80.40
3268;DHT22;1646;52.450;13.326;2023-09-19T11:38:59;23.40;79.20
3268;DHT22;1646;52.450;13.326;2023-09-19T11:44:33;23.30;79.20
3268;DHT22;1646;52.450;13.326;2023-09-19T11:49:40;23.10;77.80
3268;DHT22;1646;52.450;13.326;2023-09-19T11:54:40;22.50;77.80
3268;DHT22;1646;52.450;13.326;2023-09-19T11:59:42;22.30;79.30
3268;DHT22;1646;52.450;13.326;2023-09-19T12:04:43;22.20;79.40
3268;DHT22;1646;52.450;13.326;2023-09-19T12:09:48;22.10;79.10
3268;DHT22;1646;52.450;13.326;2023-09-19T12:14:48;22.10;80.30
3268;DHT22;1646;52.450;13.326;2023-09-19T12:19:51;22.30;80.20
3268;DHT22;1646;52.450;13.326;2023-09-19T12:24:50;22.20;78.10
3268;DHT22;1646;52.450;13.326;2023-09-19T12:29:52;22.10;79.60
3268;DHT22;1646;52.450;13.326;2023-09-19T12:34:54;22.40;78.80
3268;DHT22;1646;52.450;13.326;2023-09-19T12:39:52;22.70;78.10
3268;DHT22;1646;52.450;13.326;2023-09-19T12:45:10;23.00;77.20
3268;DHT22;1646;52.450;13.326;2023-09-19T12:50:15;22.90;76.50
3268;DHT22;1646;52.450;13.326;2023-09-19T12:55:23;22.40;78.20
3268;DHT22;1646;52.450;13.326;2023-09-19T13:00:21;22.50;80.10
3268;DHT22;1646;52.450;13.326;2023-09-19T13:05:52;22.60;80.30
3268;DHT22;1646;52.450;13.326;2023-09-19T13:11:06;22.40;78.90
3268;DHT22;1646;52.450;13.326;2023-09-19T13:16:07;22.10;80.50
3268;DHT22;1646;52.450;13.326;2023-09-19T13:21:08;22.30;79.70
3268;DHT22;1646;52.450;13.326;2023-09-19T13:26:09;22.00;80.70
3268;DHT22;1646;52.450;13.326;2023-09-19T13:31:09;22.20;81.40
3268;DHT22;1646;52.450;13.326;2023-09-19T13:36:09;22.00;80.70
3268;DHT22;1646;52.450;13.326;2023-09-19T13:41:09;21.90;81.30
3268;DHT22;1646;52.450;13.326;2023-09-19T13:46:08;21.80;80.90
3268;DHT22;1646;52.450;13.326;2023-09-19T13:51:11;21.70;82.40
3268;DHT22;1646;52.450;13.326;2023-09-19T13:56:09;21.70;81.50
3268;DHT22;1646;52.450;13.326;2023-09-19T14:01:08;21.80;81.40
3268;DHT22;1646;52.450;13.326;2023-09-19T14:06:11;21.80;81.30
3268;DHT22;1646;52.450;13.326;2023-09-19T14:11:09;22.00;81.70
3268;DHT22;1646;52.450;13.326;2023-09-19T14:16:08;22.10;80.60
3268;DHT22;1646;52.450;13.326;2023-09-19T14:21:07;22.10;81.20
3268;DHT22;1646;52.450;13.326;2023-09-19T14:26:09;22.10;81.70
3268;DHT22;1646;52.450;13.326;2023-09-19T14:31:09;22.10;82.10
3268;DHT22;1646;52.450;13.326;2023-09-19T14:36:09;22.10;81.70
3268;DHT22;1646;52.450;13.326;2023-09-19T14:41:09;22.00;83.40
3268;DHT22;1646;52.450;13.326;2023-09-19T14:46:08;22.00;82.20
3268;DHT22;1646;52.450;13.326;2023-09-19T14:51:07;21.80;81.60
3268;DHT22;1646;52.450;13.326;2023-09-19T14:56:09;21.60;81.80
3268;DHT22;1646;52.450;13.326;2023-09-19T15:01:09;21.60;82.20
3268;DHT22;1646;52.450;13.326;2023-09-19T15:06:09;21.70;81.50
3268;DHT22;1646;52.450;13.326;2023-09-19T15:11:13;21.80;81.70
3268;DHT22;1646;52.450;13.326;2023-09-19T15:16:14;21.80;81.20
3268;DHT22;1646;52.450;13.326;2023-09-19T15:21:13;21.90;81.70
3268;DHT22;1646;52.450;13.326;2023-09-19T15:26:14;21.90;82.20
3268;DHT22;1646;52.450;13.326;2023-09-19T15:31:14;21.90;81.90
3268;DHT22;1646;52.450;13.326;2023-09-19T15:36:14;22.10;81.90
3268;DHT22;1646;52.450;13.326;2023-09-19T15:41:14;22.50;82.30
3268;DHT22;1646;52.450;13.326;2023-09-19T15:46:12;22.80;81.40
3268;DHT22;1646;52.450;13.326;2023-09-19T15:51:12;23.10;82.00
3268;DHT22;1646;52.450;13.326;2023-09-19T15:56:11;23.90;80.20
3268;DHT22;1646;52.450;13.326;2023-09-19T16:01:12;24.30;79.20
3268;DHT22;1646;52.450;13.326;2023-09-19T16:06:12;24.90;78.30
3268;DHT22;1646;52.450;13.326;2023-09-19T16:11:11;25.50;75.30
3268;DHT22;1646;52.450;13.326;2023-09-19T16:16:11;25.60;75.20
3268;DHT22;1646;52.450;13.326;2023-09-19T16:21:11;25.90;72.50
3268;DHT22;1646;52.450;13.326;2023-09-19T16:26:10;25.30;74.40
3268;DHT22;1646;52.450;13.326;2023-09-19T16:31:11;26.10;74.20
3268;DHT22;1646;52.450;13.326;2023-09-19T16:36:11;26.50;70.40
3268;DHT22;1646;52.450;13.326;2023-09-19T16:41:09;25.00;71.80
3268;DHT22;1646;52.450;13.326;2023-09-19T16:46:11;23.60;74.30
3268;DHT22;1646;52.450;13.326;2023-09-19T16:51:16;22.50;76.50
3268;DHT22;1646;52.450;13.326;2023-09-19T16:56:14;21.90;78.00
3268;DHT22;1646;52.450;13.326;2023-09-19T17:01:17;21.50;80.40
3268;DHT22;1646;52.450;13.326;2023-09-19T17:06:18;21.20;80.50
3268;DHT22;1646;52.450;13.326;2023-09-19T17:11:19;21.10;80.90
3268;DHT22;1646;52.450;13.326;2023-09-19T17:16:20;21.00;81.90
3268;DHT22;1646;52.450;13.326;2023-09-19T17:21:20;20.90;81.90
3268;DHT22;1646;52.450;13.326;2023-09-19T17:26:19;20.80;82.30
3268;DHT22;1646;52.450;13.326;2023-09-19T17:31:22;20.60;82.70
3268;DHT22;1646;52.450;13.326;2023-09-19T17:36:24;20.60;82.90
3268;DHT22;1646;52.450;13.326;2023-09-19T17:41:23;20.60;83.30
3268;DHT22;1646;52.450;13.326;2023-09-19T17:46:23;20.50;83.70
3268;DHT22;1646;52.450;13.326;2023-09-19T17:51:23;20.50;82.80
3268;DHT22;1646;52.450;13.326;2023-09-19T17:56:22;20.40;83.00
3268;DHT22;1646;52.450;13.326;2023-09-19T18:01:23;20.30;83.20
3268;DHT22;1646;52.450;13.326;2023-09-19T18:06:25;20.30;83.70
3268;DHT22;1646;52.450;13.326;2023-09-19T18:11:25;20.10;84.30
3268;DHT22;1646;52.450;13.326;2023-09-19T18:16:25;20.10;84.70
3268;DHT22;1646;52.450;13.326;2023-09-19T18:21:25;20.00;85.10
3268;DHT22;1646;52.450;13.326;2023-09-19T18:26:24;20.00;85.70
3268;DHT22;1646;52.450;13.326;2023-09-19T18:31:24;19.90;85.70
3268;DHT22;1646;52.450;13.326;2023-09-19T18:36:23;19.90;86.60
3268;DHT22;1646;52.450;13.326;2023-09-19T18:41:21;19.80;87.20
3268;DHT22;1646;52.450;13.326;2023-09-19T18:46:20;19.70;87.60
3268;DHT22;1646;52.450;13.326;2023-09-19T18:51:20;19.60;88.20
3268;DHT22;1646;52.450;13.326;2023-09-19T18:56:20;19.50;88.50
3268;DHT22;1646;52.450;13.326;2023-09-19T19:01:18;19.50;89.40
3268;DHT22;1646;52.450;13.326;2023-09-19T19:06:17;19.40;89.70
3268;DHT22;1646;52.450;13.326;2023-09-19T19:11:17;19.30;90.00
3268;DHT22;1646;52.450;13.326;2023-09-19T19:16:19;19.30;90.30
3268;DHT22;1646;52.450;13.326;2023-09-19T19:21:17;19.20;90.50
3268;DHT22;1646;52.450;13.326;2023-09-19T19:26:18;19.20;90.50
3268;DHT22;1646;52.450;13.326;2023-09-19T19:31:19;19.20;90.80
3268;DHT22;1646;52.450;13.326;2023-09-19T19:36:20;19.20;91.00
3268;DHT22;1646;52.450;13.326;2023-09-19T19:41:22;19.10;91.10
3268;DHT22;1646;52.450;13.326;2023-09-19T19:46:21;19.10;91.40
3268;DHT22;1646;52.450;13.326;2023-09-19T19:51:19;19.00;91.90
3268;DHT22;1646;52.450;13.326;2023-09-19T19:56:18;19.10;91.90
3268;DHT22;1646;52.450;13.326;2023-09-19T20:01:18;19.00;91.90
3268;DHT22;1646;52.450;13.326;2023-09-19T20:06:16;18.90;92.30
3268;DHT22;1646;52.450;13.326;2023-09-19T20:11:16;18.90;92.40
3268;DHT22;1646;52.450;13.326;2023-09-19T20:16:17;18.90;93.20
3268;DHT22;1646;52.450;13.326;2023-09-19T20:21:16;18.80;93.10
3268;DHT22;1646;52.450;13.326;2023-09-19T20:26:14;18.80;93.40
3268;DHT22;1646;52.450;13.326;2023-09-19T20:31:13;18.80;93.60
3268;DHT22;1646;52.450;13.326;2023-09-19T20:36:13;18.80;93.70
3268;DHT22;1646;52.450;13.326;2023-09-19T20:41:12;18.80;93.80
3268;DHT22;1646;52.450;13.326;2023-09-19T20:46:10;18.80;94.00
3268;DHT22;1646;52.450;13.326;2023-09-19T20:51:10;18.80;94.20
3268;DHT22;1646;52.450;13.326;2023-09-19T20:56:12;18.80;94.50
3268;DHT22;1646;52.450;13.326;2023-09-19T21:01:12;18.70;94.50
3268;DHT22;1646;52.450;13.326;2023-09-19T21:06:11;18.70;94.80
3268;DHT22;1646;52.450;13.326;2023-09-19T21:11:13;18.60;94.80
3268;DHT22;1646;52.450;13.326;2023-09-19T21:16:12;18.70;94.90
3268;DHT22;1646;52.450;13.326;2023-09-19T21:21:12;18.70;95.00
3268;DHT22;1646;52.450;13.326;2023-09-19T21:26:13;18.70;95.10
3268;DHT22;1646;52.450;13.326;2023-09-19T21:31:12;18.70;95.40
3268;DHT22;1646;52.450;13.326;2023-09-19T21:36:12;18.60;95.30
3268;DHT22;1646;52.450;13.326;2023-09-19T21:41:19;18.60;95.30
3268;DHT22;1646;52.450;13.326;2023-09-19T21:46:18;18.50;95.50
3268;DHT22;1646;52.450;13.326;2023-09-19T21:51:17;18.40;95.70
3268;DHT22;1646;52.450;13.326;2023-09-19T21:56:16;18.40;95.80
3268;DHT22;1646;52.450;13.326;2023-09-19T22:01:18;18.40;95.80
3268;DHT22;1646;52.450;13.326;2023-09-19T22:06:21;18.40;96.00
3268;DHT22;1646;52.450;13.326;2023-09-19T22:11:20;18.30;96.20
3268;DHT22;1646;52.450;13.326;2023-09-19T22:16:20;18.30;96.20
3268;DHT22;1646;52.450;13.326;2023-09-19T22:21:19;18.20;96.50
3268;DHT22;1646;52.450;13.326;2023-09-19T22:26:24;18.20;96.60
3268;DHT22;1646;52.450;13.326;2023-09-19T22:31:25;18.20;96.80
3268;DHT22;1646;52.450;13.326;2023-09-19T22:36:26;18.20;97.00
3268;DHT22;1646;52.450;13.326;2023-09-19T22:41:29;18.20;97.00
3268;DHT22;1646;52.450;13.326;2023-09-19T22:46:31;18.20;97.20
3268;DHT22;1646;52.450;13.326;2023-09-19T22:51:29;18.10;97.40
3268;DHT22;1646;52.450;13.326;2023-09-19T22:56:34;18.10;97.60
3268;DHT22;1646;52.450;13.326;2023-09-19T23:01:34;18.00;97.90
3268;DHT22;1646;52.450;13.326;2023-09-19T23:06:35;17.90;98.10
3268;DHT22;1646;52.450;13.326;2023-09-19T23:11:35;17.80;98.50
3268;DHT22;1646;52.450;13.326;2023-09-19T23:16:37;17.80;98.70
3268;DHT22;1646;52.450;13.326;2023-09-19T23:21:44;17.80;99.00
3268;DHT22;1646;52.450;13.326;2023-09-19T23:26:44;17.70;99.10
3268;DHT22;1646;52.450;13.326;2023-09-19T23:31:44;17.70;99.70
3268;DHT22;1646;52.450;13.326;2023-09-19T23:36:43;17.70;99.90
3268;DHT22;1646;52.450;13.326;2023-09-19T23:41:41;17.60;99.80
3268;DHT22;1646;52.450;13.326;2023-09-19T23:46:39;17.60;99.70
3268;DHT22;1646;52.450;13.326;2023-09-19T23:51:39;17.60;99.90
3268;DHT22;1646;52.450;13.326;2023-09-19T23:56:40;17.60;99.90
